createdAt,value
2019-05-22T00:01:48.213Z,16.28
2019-05-22T00:04:22.060Z,16.29
2019-05-22T00:06:51.863Z,16.26
2019-05-22T00:09:27.846Z,16.28
2019-05-22T00:11:58.332Z,16.29
2019-05-22T00:14:27.588Z,16.26
2019-05-22T00:16:56.847Z,16.26
2019-05-22T00:19:26.778Z,16.22
2019-05-22T00:21:59.922Z,16.23
2019-05-22T00:24:29.173Z,16.24
2019-05-22T00:26:57.802Z,16.25
2019-05-22T00:29:28.048Z,16.27
2019-05-22T00:31:56.541Z,16.23
2019-05-22T00:34:25.564Z,16.22
2019-05-22T00:36:54.368Z,16.25
2019-05-22T00:39:23.977Z,16.28
2019-05-22T00:41:52.148Z,16.31
2019-05-22T00:44:20.604Z,16.32
2019-05-22T00:46:51.024Z,16.33
2019-05-22T00:49:21.526Z,16.33
2019-05-22T00:52:21.622Z,16.38
2019-05-22T00:55:05.324Z,16.41
2019-05-22T00:57:47.404Z,16.38
2019-05-22T01:00:37.513Z,16.40
2019-05-22T01:03:06.800Z,16.40
2019-05-22T01:05:36.755Z,16.38
2019-05-22T01:08:05.980Z,16.39
2019-05-22T01:10:34.883Z,16.39
2019-05-22T01:13:03.901Z,16.37
2019-05-22T01:15:35.150Z,16.37
2019-05-22T01:18:07.141Z,16.36
2019-05-22T01:20:36.952Z,16.35
2019-05-22T01:23:06.656Z,16.25
2019-05-22T01:25:36.498Z,16.25
2019-05-22T01:28:06.634Z,16.36
2019-05-22T01:30:56.889Z,16.33
2019-05-22T01:33:30.793Z,16.38
2019-05-22T01:36:33.591Z,16.41
2019-05-22T01:39:27.938Z,16.41
2019-05-22T01:41:58.292Z,16.39
2019-05-22T01:44:28.118Z,16.40
2019-05-22T01:47:00.287Z,16.38
2019-05-22T01:49:30.727Z,16.39
2019-05-22T01:51:59.182Z,16.41
2019-05-22T01:54:27.236Z,16.40
2019-05-22T01:57:03.973Z,16.42
2019-05-22T01:59:33.427Z,16.42
2019-05-22T02:02:01.368Z,16.40
2019-05-22T02:04:30.135Z,16.38
2019-05-22T02:06:58.004Z,16.39
2019-05-22T02:09:34.904Z,16.41
2019-05-22T02:12:25.076Z,16.44
2019-05-22T02:14:55.202Z,16.43
2019-05-22T02:17:30.604Z,16.46
2019-05-22T02:19:59.643Z,16.45
2019-05-22T02:22:29.005Z,16.48
2019-05-22T02:24:57.206Z,16.48
2019-05-22T02:27:25.803Z,16.46
2019-05-22T02:29:54.930Z,16.43
2019-05-22T02:32:25.409Z,16.44
2019-05-22T02:34:55.071Z,16.47
2019-05-22T02:37:24.254Z,16.49
2019-05-22T02:39:53.534Z,16.47
2019-05-22T02:42:28.009Z,16.46
2019-05-22T02:44:57.282Z,16.49
2019-05-22T02:47:26.474Z,16.52
2019-05-22T02:49:57.755Z,16.48
2019-05-22T02:52:26.550Z,16.49
2019-05-22T02:54:56.232Z,16.52
2019-05-22T02:57:27.815Z,16.56
2019-05-22T02:59:56.725Z,16.48
2019-05-22T03:02:25.844Z,16.51
2019-05-22T03:05:03.160Z,16.55
2019-05-22T03:07:31.852Z,16.53
2019-05-22T03:10:01.289Z,16.51
2019-05-22T03:12:31.981Z,16.55
2019-05-22T03:15:01.289Z,16.52
2019-05-22T03:17:31.514Z,16.53
2019-05-22T03:20:03.752Z,16.55
2019-05-22T03:22:39.567Z,16.57
2019-05-22T03:25:13.005Z,16.57
2019-05-22T03:27:43.882Z,16.58
2019-05-22T03:30:26.844Z,16.57
2019-05-22T03:32:56.594Z,16.59
2019-05-22T03:35:27.402Z,16.60
2019-05-22T03:37:56.944Z,16.62
2019-05-22T03:40:28.098Z,16.55
2019-05-22T03:42:56.643Z,16.58
2019-05-22T03:45:25.317Z,16.54
2019-05-22T03:47:54.580Z,16.54
2019-05-22T03:50:23.498Z,16.60
2019-05-22T03:52:54.625Z,16.60
2019-05-22T03:55:24.511Z,16.61
2019-05-22T03:57:52.403Z,16.55
2019-05-22T04:00:24.268Z,16.56
2019-05-22T04:02:54.225Z,16.58
2019-05-22T04:05:23.974Z,16.51
2019-05-22T04:07:54.174Z,16.52
2019-05-22T04:10:25.424Z,16.53
2019-05-22T04:12:55.974Z,16.56
2019-05-22T04:15:24.620Z,16.57
2019-05-22T04:17:56.126Z,16.58
2019-05-22T04:20:25.062Z,16.56
2019-05-22T04:22:58.045Z,16.59
2019-05-22T04:25:26.536Z,16.60
2019-05-22T04:27:54.882Z,16.59
2019-05-22T04:30:23.151Z,16.64
2019-05-22T04:32:51.079Z,16.59
2019-05-22T04:35:20.527Z,16.60
2019-05-22T04:37:49.477Z,16.61
2019-05-22T04:40:59.384Z,16.59
2019-05-22T04:43:34.372Z,16.62
2019-05-22T04:46:04.895Z,16.64
2019-05-22T04:48:35.858Z,16.64
2019-05-22T04:51:25.591Z,16.67
2019-05-22T04:53:55.069Z,16.67
2019-05-22T04:56:23.454Z,16.67
2019-05-22T04:58:52.351Z,16.68
2019-05-22T05:01:20.832Z,16.65
2019-05-22T05:03:49.239Z,16.66
2019-05-22T05:06:18.667Z,16.66
2019-05-22T05:08:47.422Z,16.64
2019-05-22T05:11:15.388Z,16.65
2019-05-22T05:13:43.405Z,16.68
2019-05-22T05:16:11.314Z,16.72
2019-05-22T05:18:39.712Z,16.71
2019-05-22T05:21:07.618Z,16.65
2019-05-22T05:23:35.570Z,16.64
2019-05-22T05:26:03.465Z,16.59
2019-05-22T05:28:33.739Z,16.58
2019-05-22T05:31:01.707Z,16.58
2019-05-22T05:33:33.201Z,16.58
2019-05-22T05:36:01.273Z,16.69
2019-05-22T05:38:36.663Z,16.61
2019-05-22T05:41:05.189Z,16.59
2019-05-22T05:43:33.679Z,16.55
2019-05-22T05:46:01.695Z,16.47
2019-05-22T05:48:32.556Z,16.44
2019-05-22T05:51:39.918Z,16.38
2019-05-22T05:54:15.167Z,16.42
2019-05-22T05:56:49.828Z,16.40
2019-05-22T05:59:19.819Z,16.33
2019-05-22T06:01:55.390Z,16.33
2019-05-22T06:04:35.715Z,16.32
2019-05-22T06:07:17.818Z,16.26
2019-05-22T06:10:10.131Z,16.28
2019-05-22T06:12:38.269Z,16.26
2019-05-22T06:15:07.575Z,16.29
2019-05-22T06:18:29.071Z,16.34
2019-05-22T06:21:03.858Z,16.31
2019-05-22T06:23:55.000Z,16.24
2019-05-22T06:27:07.703Z,16.19
2019-05-22T06:29:49.703Z,16.20
2019-05-22T06:32:59.776Z,16.24
2019-05-22T06:35:33.412Z,16.23
2019-05-22T06:38:10.277Z,16.08
2019-05-22T06:40:38.633Z,16.08
2019-05-22T06:44:00.857Z,16.05
2019-05-22T06:46:45.721Z,16.05
2019-05-22T06:49:35.581Z,15.98
2019-05-22T06:52:05.204Z,15.98
2019-05-22T06:54:33.301Z,15.95
2019-05-22T06:57:01.351Z,16.00
2019-05-22T06:59:29.536Z,15.97
2019-05-22T07:02:01.441Z,15.96
2019-05-22T07:04:29.365Z,16.04
2019-05-22T07:06:57.622Z,16.00
2019-05-22T07:09:25.826Z,15.95
2019-05-22T07:11:54.296Z,15.99
2019-05-22T07:14:23.897Z,15.94
2019-05-22T07:16:52.469Z,15.94
2019-05-22T07:19:21.931Z,15.99
2019-05-22T07:21:50.745Z,15.95
2019-05-22T07:24:20.783Z,15.98
2019-05-22T07:26:49.487Z,15.96
2019-05-22T07:29:18.476Z,15.92
2019-05-22T07:31:46.711Z,15.95
2019-05-22T07:34:14.416Z,15.98
2019-05-22T07:36:43.687Z,16.00
2019-05-22T07:39:11.629Z,16.09
2019-05-22T07:41:39.987Z,16.08
2019-05-22T07:44:08.028Z,16.09
2019-05-22T07:46:36.178Z,16.10
2019-05-22T07:49:05.270Z,16.08
2019-05-22T07:51:48.472Z,16.08
2019-05-22T07:54:04.733Z,16.11
2019-05-22T07:56:36.498Z,16.18
2019-05-22T07:59:04.556Z,16.19
2019-05-22T08:01:33.279Z,16.24
2019-05-22T08:04:02.356Z,16.28
2019-05-22T08:06:31.134Z,16.32
2019-05-22T08:08:59.682Z,16.28
2019-05-22T08:11:27.696Z,16.27
2019-05-22T08:13:57.076Z,16.22
2019-05-22T08:16:26.500Z,16.26
2019-05-22T08:18:54.375Z,16.32
2019-05-22T08:21:23.531Z,16.38
2019-05-22T08:23:54.126Z,16.38
2019-05-22T08:26:23.265Z,16.45
2019-05-22T08:28:51.543Z,16.50
2019-05-22T08:31:22.445Z,16.60
2019-05-22T08:33:50.910Z,16.62
2019-05-22T08:36:19.192Z,16.73
2019-05-22T08:38:47.554Z,16.56
2019-05-22T08:41:19.203Z,16.69
2019-05-22T08:44:13.587Z,16.65
2019-05-22T08:46:18.243Z,16.68
2019-05-22T08:48:48.686Z,16.74
2019-05-22T08:51:16.770Z,16.72
2019-05-22T08:53:48.094Z,16.72
2019-05-22T08:56:15.243Z,16.74
2019-05-22T08:58:44.479Z,16.78
2019-05-22T09:01:13.808Z,16.81
2019-05-22T09:03:42.133Z,16.87
2019-05-22T09:06:10.455Z,16.77
2019-05-22T09:08:38.215Z,16.79
2019-05-22T09:11:06.244Z,16.82
2019-05-22T09:13:34.207Z,16.83
2019-05-22T09:16:02.501Z,16.85
2019-05-22T09:18:31.329Z,16.85
2019-05-22T09:20:59.818Z,16.86
2019-05-22T09:23:27.877Z,16.83
2019-05-22T09:25:58.618Z,16.86
2019-05-22T09:28:26.582Z,16.90
2019-05-22T09:30:54.415Z,16.92
2019-05-22T09:33:22.613Z,16.95
2019-05-22T09:35:50.581Z,16.96
2019-05-22T09:38:19.420Z,17.01
2019-05-22T09:40:48.606Z,17.00
2019-05-22T09:43:16.837Z,17.01
2019-05-22T09:45:44.535Z,17.02
2019-05-22T09:48:12.413Z,16.99
2019-05-22T09:50:40.416Z,17.03
2019-05-22T09:53:08.749Z,17.07
2019-05-22T09:55:37.271Z,17.10
2019-05-22T09:58:06.384Z,17.11
2019-05-22T10:00:35.618Z,17.17
2019-05-22T10:03:05.187Z,17.21
2019-05-22T10:05:33.240Z,17.16
2019-05-22T10:08:02.517Z,17.17
2019-05-22T10:10:30.795Z,17.25
2019-05-22T10:12:58.535Z,17.19
2019-05-22T10:15:27.339Z,17.22
2019-05-22T10:17:55.641Z,17.21
2019-05-22T10:20:23.472Z,17.19
2019-05-22T10:22:51.362Z,17.19
2019-05-22T10:25:19.242Z,17.27
2019-05-22T10:27:47.394Z,17.40
2019-05-22T10:30:17.976Z,17.38
2019-05-22T10:32:45.750Z,17.37
2019-05-22T10:35:13.596Z,17.71
2019-05-22T10:37:41.589Z,18.02
2019-05-22T10:40:13.124Z,18.14
2019-05-22T10:42:45.034Z,18.06
2019-05-22T10:45:13.083Z,17.97
2019-05-22T10:47:41.702Z,18.01
2019-05-22T10:50:09.999Z,18.03
2019-05-22T10:52:38.174Z,17.94
2019-05-22T10:55:07.659Z,17.94
2019-05-22T10:57:40.455Z,17.91
2019-05-22T11:00:08.658Z,17.89
2019-05-22T11:02:36.462Z,17.99
2019-05-22T11:05:06.869Z,17.91
2019-05-22T11:07:35.213Z,17.94
2019-05-22T11:10:04.173Z,17.93
2019-05-22T11:12:32.055Z,18.03
2019-05-22T11:15:00.886Z,18.11
2019-05-22T11:17:28.899Z,18.23
2019-05-22T11:19:57.748Z,18.31
2019-05-22T11:22:25.622Z,18.20
2019-05-22T11:24:53.582Z,18.15
2019-05-22T11:27:22.701Z,18.18
2019-05-22T11:29:51.268Z,18.42
2019-05-22T11:32:20.550Z,18.58
2019-05-22T11:34:48.425Z,18.77
2019-05-22T11:37:16.435Z,19.00
2019-05-22T11:39:45.232Z,18.98
2019-05-22T11:42:13.519Z,19.06
2019-05-22T11:44:41.670Z,19.34
2019-05-22T11:47:10.633Z,19.42
2019-05-22T11:49:38.979Z,19.70
2019-05-22T11:52:06.894Z,19.55
2019-05-22T11:54:34.897Z,19.63
2019-05-22T11:57:03.108Z,19.72
2019-05-22T11:59:32.095Z,19.51
2019-05-22T12:02:00.097Z,19.23
2019-05-22T12:04:45.749Z,18.99
2019-05-22T12:06:58.969Z,18.84
2019-05-22T12:09:27.405Z,19.17
2019-05-22T12:11:55.366Z,19.04
2019-05-22T12:14:23.577Z,19.09
2019-05-22T12:16:53.280Z,19.14
2019-05-22T12:19:22.415Z,18.99
2019-05-22T12:21:50.309Z,18.80
2019-05-22T12:24:26.961Z,18.53
2019-05-22T12:26:47.979Z,18.52
2019-05-22T12:29:17.432Z,18.60
2019-05-22T12:31:46.788Z,18.26
2019-05-22T12:34:14.593Z,18.32
2019-05-22T12:36:43.335Z,18.36
2019-05-22T12:39:11.821Z,18.19
2019-05-22T12:41:40.500Z,18.15
2019-05-22T12:44:08.317Z,18.03
2019-05-22T12:46:37.004Z,18.12
2019-05-22T12:49:08.842Z,17.88
2019-05-22T12:51:36.659Z,17.88
2019-05-22T12:54:04.984Z,17.83
2019-05-22T12:56:33.570Z,17.65
2019-05-22T12:59:03.649Z,17.44
2019-05-22T13:01:33.494Z,17.29
2019-05-22T13:04:03.528Z,17.04
2019-05-22T13:06:31.558Z,16.82
2019-05-22T13:09:00.800Z,16.85
2019-05-22T13:11:28.990Z,16.59
2019-05-22T13:13:56.991Z,16.40
2019-05-22T13:16:26.304Z,16.39
2019-05-22T13:18:55.462Z,16.37
2019-05-22T13:21:30.387Z,16.31
2019-05-22T13:24:01.637Z,16.26
2019-05-22T13:26:31.217Z,16.31
2019-05-22T13:28:59.249Z,16.40
2019-05-22T13:31:27.327Z,16.45
2019-05-22T13:33:56.366Z,16.42
2019-05-22T13:36:24.606Z,16.44
2019-05-22T13:38:53.167Z,16.47
2019-05-22T13:41:21.561Z,16.55
2019-05-22T13:43:50.003Z,16.51
2019-05-22T13:46:18.320Z,16.39
2019-05-22T13:48:46.277Z,16.23
2019-05-22T13:51:14.654Z,16.20
2019-05-22T13:53:43.030Z,16.09
2019-05-22T13:56:11.618Z,16.01
2019-05-22T13:58:40.389Z,16.04
2019-05-22T14:01:08.909Z,16.06
2019-05-22T14:03:37.539Z,15.98
2019-05-22T14:06:05.521Z,15.85
2019-05-22T14:08:33.750Z,15.93
2019-05-22T14:11:02.481Z,15.85
2019-05-22T14:13:31.259Z,15.87
2019-05-22T14:15:59.261Z,15.92
2019-05-22T14:18:27.526Z,15.85
2019-05-22T14:20:55.630Z,15.71
2019-05-22T14:23:24.203Z,15.65
2019-05-22T14:25:52.547Z,15.57
2019-05-22T14:28:22.022Z,15.54
2019-05-22T14:30:51.714Z,15.54
2019-05-22T14:33:19.667Z,15.46
2019-05-22T14:35:50.494Z,15.42
2019-05-22T14:38:19.080Z,15.40
2019-05-22T14:40:47.050Z,15.35
2019-05-22T14:43:15.166Z,15.30
2019-05-22T14:45:43.087Z,15.14
2019-05-22T14:48:12.162Z,15.16
2019-05-22T14:50:40.255Z,15.12
2019-05-22T14:53:09.836Z,15.12
2019-05-22T14:55:38.364Z,15.07
2019-05-22T14:58:07.561Z,15.03
2019-05-22T15:00:36.162Z,15.04
2019-05-22T15:03:08.099Z,14.95
2019-05-22T15:05:36.294Z,14.94
2019-05-22T15:08:06.273Z,14.96
2019-05-22T15:10:35.967Z,14.88
2019-05-22T15:13:05.154Z,14.85
2019-05-22T15:15:33.679Z,14.82
2019-05-22T15:18:01.498Z,14.76
2019-05-22T15:20:41.642Z,14.76
2019-05-22T15:23:09.905Z,14.79
2019-05-22T15:25:37.838Z,14.65
2019-05-22T15:28:06.726Z,14.60
2019-05-22T15:30:35.008Z,14.59
2019-05-22T15:33:03.772Z,14.57
2019-05-22T15:35:32.719Z,14.64
2019-05-22T15:38:02.680Z,14.58
2019-05-22T15:40:30.928Z,14.58
2019-05-22T15:42:59.544Z,14.59
2019-05-22T15:45:28.792Z,14.57
2019-05-22T15:48:01.761Z,14.64
2019-05-22T15:50:33.448Z,14.57
2019-05-22T15:53:09.589Z,14.56
2019-05-22T15:55:38.648Z,14.51
2019-05-22T15:58:07.455Z,14.50
2019-05-22T16:00:37.090Z,14.51
2019-05-22T16:03:10.252Z,14.55
2019-05-22T16:05:39.859Z,14.52
2019-05-22T16:08:09.161Z,14.56
2019-05-22T16:10:38.743Z,14.55
2019-05-22T16:13:08.585Z,14.59
2019-05-22T16:15:38.289Z,14.57
2019-05-22T16:18:11.816Z,14.55
2019-05-22T16:20:38.033Z,14.47
2019-05-22T16:23:07.931Z,14.46
2019-05-22T16:25:36.896Z,14.45
2019-05-22T16:28:04.801Z,14.39
2019-05-22T16:30:33.458Z,14.45
2019-05-22T16:33:03.085Z,14.33
2019-05-22T16:35:31.158Z,14.42
2019-05-22T16:37:59.595Z,14.38
2019-05-22T16:40:29.387Z,14.37
2019-05-22T16:42:59.434Z,14.31
2019-05-22T16:45:29.609Z,14.27
2019-05-22T16:48:00.151Z,14.23
2019-05-22T16:50:28.826Z,14.25
2019-05-22T16:52:59.324Z,14.26
2019-05-22T16:55:29.673Z,14.24
2019-05-22T16:57:57.700Z,14.17
2019-05-22T17:00:27.787Z,14.22
2019-05-22T17:02:56.224Z,14.18
2019-05-22T17:05:24.490Z,14.18
2019-05-22T17:07:52.908Z,14.11
2019-05-22T17:10:23.759Z,14.17
2019-05-22T17:12:52.657Z,14.17
2019-05-22T17:15:21.379Z,14.17
2019-05-22T17:17:49.566Z,14.15
2019-05-22T17:20:20.355Z,14.15
2019-05-22T17:22:48.266Z,14.13
2019-05-22T17:25:19.135Z,14.10
2019-05-22T17:27:48.779Z,14.10
2019-05-22T17:30:20.663Z,14.06
2019-05-22T17:32:48.206Z,14.06
2019-05-22T17:35:17.958Z,14.12
2019-05-22T17:37:46.647Z,14.12
2019-05-22T17:40:16.716Z,14.05
2019-05-22T17:42:47.512Z,14.00
2019-05-22T17:45:19.683Z,14.00
2019-05-22T17:47:47.820Z,14.04
2019-05-22T17:50:27.016Z,14.07
2019-05-22T17:52:48.511Z,14.06
2019-05-22T17:55:18.693Z,13.99
2019-05-22T17:57:46.662Z,13.92
2019-05-22T18:00:37.306Z,13.89
2019-05-22T18:03:06.009Z,13.92
2019-05-22T18:05:36.062Z,13.86
2019-05-22T18:08:04.979Z,13.82
2019-05-22T18:10:39.670Z,13.83
2019-05-22T18:13:04.845Z,13.79
2019-05-22T18:15:32.999Z,13.77
2019-05-22T18:18:01.499Z,13.74
2019-05-22T18:20:41.864Z,13.70
2019-05-22T18:22:59.586Z,13.76
2019-05-22T18:25:27.477Z,13.75
2019-05-22T18:27:55.794Z,13.74
2019-05-22T18:30:25.425Z,13.76
2019-05-22T18:32:53.517Z,13.73
2019-05-22T18:35:21.472Z,13.68
2019-05-22T18:37:49.324Z,13.71
2019-05-22T18:40:17.247Z,13.69
2019-05-22T18:42:45.594Z,13.65
2019-05-22T18:45:13.694Z,13.65
2019-05-22T18:47:42.096Z,13.68
2019-05-22T18:50:10.556Z,13.67
2019-05-22T18:52:41.641Z,13.66
2019-05-22T18:55:09.767Z,13.67
2019-05-22T18:57:38.667Z,13.65
2019-05-22T19:00:07.113Z,13.61
2019-05-22T19:02:35.199Z,13.61
2019-05-22T19:05:03.560Z,13.61
2019-05-22T19:07:31.681Z,13.61
2019-05-22T19:09:59.583Z,13.55
2019-05-22T19:12:27.766Z,13.47
2019-05-22T19:14:55.477Z,13.41
2019-05-22T19:17:23.645Z,13.43
2019-05-22T19:19:51.620Z,13.44
2019-05-22T19:22:21.582Z,13.41
2019-05-22T19:24:49.423Z,13.32
2019-05-22T19:27:17.479Z,13.35
2019-05-22T19:29:45.210Z,13.33
2019-05-22T19:32:13.196Z,13.36
2019-05-22T19:34:41.100Z,13.34
2019-05-22T19:37:11.091Z,13.34
2019-05-22T19:39:40.144Z,13.29
2019-05-22T19:42:10.052Z,13.23
2019-05-22T19:44:38.304Z,13.25
2019-05-22T19:47:08.916Z,13.25
2019-05-22T19:49:36.959Z,13.23
2019-05-22T19:52:05.869Z,13.21
2019-05-22T19:54:34.886Z,13.21
2019-05-22T19:57:02.776Z,13.24
2019-05-22T19:59:31.108Z,13.28
2019-05-22T20:01:59.828Z,13.28
2019-05-22T20:04:28.297Z,13.26
2019-05-22T20:06:58.612Z,13.23
2019-05-22T20:09:26.537Z,13.23
2019-05-22T20:11:54.411Z,13.23
2019-05-22T20:14:22.419Z,13.19
2019-05-22T20:16:50.628Z,13.16
2019-05-22T20:19:19.040Z,13.17
2019-05-22T20:21:47.428Z,13.17
2019-05-22T20:24:16.001Z,13.14
2019-05-22T20:26:44.086Z,13.11
2019-05-22T20:29:14.013Z,13.11
2019-05-22T20:31:42.048Z,13.10
2019-05-22T20:34:10.009Z,13.10
2019-05-22T20:36:39.243Z,13.08
2019-05-22T20:39:08.853Z,13.08
2019-05-22T20:41:37.716Z,13.11
2019-05-22T20:44:07.507Z,13.09
2019-05-22T20:46:37.971Z,13.09
2019-05-22T20:49:08.478Z,13.09
2019-05-22T20:51:36.959Z,13.12
2019-05-22T20:54:05.813Z,13.11
2019-05-22T20:56:34.758Z,13.13
2019-05-22T20:59:03.014Z,13.10
2019-05-22T21:01:33.048Z,13.10
2019-05-22T21:04:03.818Z,13.11
2019-05-22T21:06:36.938Z,13.06
2019-05-22T21:09:06.271Z,13.02
2019-05-22T21:11:34.929Z,13.02
2019-05-22T21:14:04.118Z,12.99
2019-05-22T21:16:33.677Z,12.99
2019-05-22T21:19:01.765Z,12.98
2019-05-22T21:21:29.700Z,13.02
2019-05-22T21:24:10.071Z,13.02
2019-05-22T21:26:28.221Z,12.95
2019-05-22T21:28:57.098Z,12.90
2019-05-22T21:31:25.028Z,12.85
2019-05-22T21:33:53.354Z,12.90
2019-05-22T21:36:22.592Z,12.90
2019-05-22T21:38:50.873Z,12.87
2019-05-22T21:41:20.686Z,12.85
2019-05-22T21:43:48.741Z,12.85
2019-05-22T21:46:16.947Z,12.83
2019-05-22T21:48:46.864Z,12.90
2019-05-22T21:51:15.204Z,12.78
2019-05-22T21:53:43.921Z,12.80
2019-05-22T21:56:11.808Z,12.80
2019-05-22T21:58:40.415Z,12.86
2019-05-22T22:01:23.643Z,12.82
2019-05-22T22:03:58.236Z,12.82
2019-05-22T22:06:27.795Z,12.87
2019-05-22T22:08:56.485Z,12.87
2019-05-22T22:11:27.193Z,12.77
2019-05-22T22:13:55.424Z,12.78
2019-05-22T22:16:24.542Z,12.76
2019-05-22T22:18:54.591Z,12.76
2019-05-22T22:21:22.490Z,12.73
2019-05-22T22:23:51.715Z,12.72
2019-05-22T22:26:25.747Z,12.72
2019-05-22T22:28:50.218Z,12.66
2019-05-22T22:31:21.371Z,12.66
2019-05-22T22:33:53.844Z,12.70
2019-05-22T22:36:22.094Z,12.68
2019-05-22T22:38:51.304Z,12.66
2019-05-22T22:41:19.529Z,12.64
2019-05-22T22:43:48.417Z,12.64
2019-05-22T22:46:42.587Z,12.71
2019-05-22T22:49:15.623Z,12.71
2019-05-22T22:51:45.336Z,12.67
2019-05-22T22:54:13.957Z,12.69
2019-05-22T22:56:43.297Z,12.69
2019-05-22T22:59:12.034Z,12.63
2019-05-22T23:01:42.611Z,12.64
2019-05-22T23:04:12.031Z,12.60
2019-05-22T23:06:40.938Z,12.65
2019-05-22T23:09:10.756Z,12.65
2019-05-22T23:11:39.919Z,12.60
2019-05-22T23:14:08.362Z,12.57
2019-05-22T23:16:37.003Z,12.57
2019-05-22T23:19:37.736Z,12.56
2019-05-22T23:22:05.663Z,12.56
2019-05-22T23:24:37.378Z,12.56
2019-05-22T23:27:06.211Z,12.56
2019-05-22T23:29:35.639Z,12.55
2019-05-22T23:32:06.441Z,12.54
2019-05-22T23:34:34.604Z,12.52
2019-05-22T23:37:03.244Z,12.52
2019-05-22T23:39:32.815Z,12.53
2019-05-22T23:42:09.688Z,12.53
2019-05-22T23:44:39.333Z,12.46
2019-05-22T23:47:08.500Z,12.45
2019-05-22T23:49:39.081Z,12.45
2019-05-22T23:52:08.065Z,12.47
2019-05-22T23:54:36.830Z,12.42
2019-05-22T23:57:05.051Z,12.43
2019-05-22T23:59:35.621Z,12.43
